Eastend, Virginia
Current Conditions -  °F | °C
As of 2:54 AM on Thursday 27 Nov 2014 (Local Time) from KRIC Reporting Station
Haze Haze  
Wind Chill:   Ceiling: 7000
Heat Index:   Visibility: 6mi
Dew Point:   Wind: 0mph
Humidity: 89%   Direction: NA
Pressure: 30.05"   Gusts: NA
Location:  37.556°N, 77.3779°W
Report Text: KRIC 270754Z 00000KT 6SM BR BKN070 OVC150 03/02 A3005 RMK AO2 SLP180 T00330017
Loading
Personal Weather Stations






























Interactive Weather Map New forecast layout! Learn more

10-Day Weather Forecast

Advertisements
Track Severe Weather on mobile